SBI232 UACC-UNOO
Flight info
| Callsign | SBI232 |
|---|---|
| Flight time | 0h 56m |
| Altitude | 32000 |
| Route | OLGAS1A OLGAS M75 POBUR/K0743F310 M75 DAKIN N990 ALODA ALODA6A |
| Aircraft | A320/M-SDE3FGHIRWY/LB1 |
Departure
| Time | 2026-04-21 10:21 |
|---|---|
| Airport | Nursultan Nazarbayev International Airport (UACC) |
Arrival
| Time | 2026-04-21 11:17 |
|---|---|
| Airport | Omsk Central Airport (UNOO) |
| Time | Latitude | Longitude | Altitude | Speed | Heading |
|---|---|---|---|---|---|
| 2026-04-21 10:01 | 51.02627 | 71.45994 | 1164 ft | 0 kts | 29° |
| 2026-04-21 10:11 | 51.02625 | 71.45992 | 1164 ft | 0 kts | 29° |
| 2026-04-21 10:11 | 51.02624 | 71.45991 | 1164 ft | 0 kts | 29° |
| 2026-04-21 10:11 | 51.02618 | 71.45986 | 1180 ft | 1 kts | 29° |
| 2026-04-21 10:11 | 51.02613 | 71.45981 | 1158 ft | 1 kts | 29° |
| 2026-04-21 10:12 | 51.02606 | 71.45975 | 1159 ft | 1 kts | 29° |
| 2026-04-21 10:12 | 51.02598 | 71.45968 | 1158 ft | 2 kts | 29° |
| 2026-04-21 10:12 | 51.02588 | 71.45960 | 1162 ft | 2 kts | 29° |
| 2026-04-21 10:12 | 51.02579 | 71.45951 | 1161 ft | 2 kts | 29° |
| 2026-04-21 10:13 | 51.02568 | 71.45942 | 1162 ft | 2 kts | 35° |
| 2026-04-21 10:13 | 51.02558 | 71.45928 | 1162 ft | 2 kts | 78° |
| 2026-04-21 10:13 | 51.02557 | 71.45907 | 1162 ft | 2 kts | 110° |
| 2026-04-21 10:13 | 51.02557 | 71.45903 | 1161 ft | 0 kts | 126° |
| 2026-04-21 10:14 | 51.02544 | 71.45927 | 1162 ft | 5 kts | 130° |
| 2026-04-21 10:14 | 51.02519 | 71.45970 | 1164 ft | 6 kts | 135° |
| 2026-04-21 10:14 | 51.02489 | 71.46018 | 1164 ft | 7 kts | 135° |
| 2026-04-21 10:15 | 51.02454 | 71.46074 | 1164 ft | 8 kts | 135° |
| 2026-04-21 10:15 | 51.02415 | 71.46136 | 1164 ft | 8 kts | 135° |
| 2026-04-21 10:15 | 51.02372 | 71.46206 | 1164 ft | 9 kts | 135° |
| 2026-04-21 10:15 | 51.02315 | 71.46236 | 1164 ft | 9 kts | 202° |
| 2026-04-21 10:16 | 51.02265 | 71.46173 | 1163 ft | 10 kts | 221° |
| 2026-04-21 10:16 | 51.02217 | 71.46095 | 1163 ft | 10 kts | 227° |
| 2026-04-21 10:16 | 51.02168 | 71.46013 | 1164 ft | 10 kts | 226° |
| 2026-04-21 10:16 | 51.02115 | 71.45932 | 1164 ft | 11 kts | 221° |
| 2026-04-21 10:17 | 51.02058 | 71.45848 | 1164 ft | 11 kts | 225° |
| 2026-04-21 10:17 | 51.02001 | 71.45759 | 1164 ft | 12 kts | 224° |
| 2026-04-21 10:17 | 51.01941 | 71.45666 | 1164 ft | 12 kts | 224° |
| 2026-04-21 10:17 | 51.01880 | 71.45571 | 1164 ft | 12 kts | 225° |
| 2026-04-21 10:18 | 51.01821 | 71.45477 | 1164 ft | 12 kts | 225° |
| 2026-04-21 10:18 | 51.01738 | 71.45348 | 1164 ft | 22 kts | 224° |
| 2026-04-21 10:18 | 51.01629 | 71.45178 | 1164 ft | 22 kts | 224° |
| 2026-04-21 10:18 | 51.01520 | 71.45009 | 1164 ft | 22 kts | 224° |
| 2026-04-21 10:19 | 51.01413 | 71.44842 | 1164 ft | 21 kts | 225° |
| 2026-04-21 10:19 | 51.01314 | 71.44702 | 1164 ft | 17 kts | 203° |
| 2026-04-21 10:19 | 51.01221 | 71.44749 | 1164 ft | 14 kts | 133° |
| 2026-04-21 10:19 | 51.01161 | 71.44863 | 1162 ft | 13 kts | 121° |
| 2026-04-21 10:20 | 51.01179 | 71.44939 | 1164 ft | 6 kts | 45° |
| 2026-04-21 10:20 | 51.01203 | 71.44977 | 1166 ft | 4 kts | 45° |
| 2026-04-21 10:20 | 51.01218 | 71.45000 | 1167 ft | 2 kts | 43° |
| 2026-04-21 10:20 | 51.01236 | 71.45028 | 1168 ft | 10 kts | 44° |
| 2026-04-21 10:21 | 51.01465 | 71.45388 | 1165 ft | 84 kts | 45° |
| 2026-04-21 10:21 | 51.02035 | 71.46278 | 1165 ft | 143 kts | 44° |
| 2026-04-21 10:21 | 51.02850 | 71.47528 | 1304 ft | 174 kts | 44° |
| 2026-04-21 10:21 | 51.03720 | 71.48870 | 1881 ft | 176 kts | 48° |
| 2026-04-21 10:22 | 51.04598 | 71.50277 | 2491 ft | 184 kts | 48° |
| 2026-04-21 10:22 | 51.05556 | 71.51788 | 2821 ft | 205 kts | 47° |
| 2026-04-21 10:22 | 51.06637 | 71.53471 | 3041 ft | 232 kts | 45° |
| 2026-04-21 10:22 | 51.07895 | 71.55419 | 3160 ft | 273 kts | 45° |
| 2026-04-21 10:23 | 51.09451 | 71.57343 | 3782 ft | 288 kts | 26° |
| 2026-04-21 10:23 | 51.11282 | 71.58297 | 5136 ft | 276 kts | 12° |
| 2026-04-21 10:23 | 51.11805 | 71.58474 | 5471 ft | 275 kts | 11° |
| 2026-04-21 10:24 | 51.12681 | 71.58717 | 5996 ft | 274 kts | 8° |
| 2026-04-21 10:24 | 51.14552 | 71.59159 | 6871 ft | 278 kts | 7° |
| 2026-04-21 10:24 | 51.16471 | 71.59634 | 7754 ft | 281 kts | 8° |
| 2026-04-21 10:24 | 51.18406 | 71.60201 | 8660 ft | 284 kts | 10° |
| 2026-04-21 10:25 | 51.20356 | 71.60856 | 9552 ft | 288 kts | 11° |
| 2026-04-21 10:25 | 51.22360 | 71.61277 | 10221 ft | 298 kts | 4° |
| 2026-04-21 10:25 | 51.24504 | 71.61595 | 10521 ft | 321 kts | 4° |
| 2026-04-21 10:25 | 51.26804 | 71.61948 | 10885 ft | 341 kts | 4° |
| 2026-04-21 10:26 | 51.29197 | 71.62327 | 11567 ft | 348 kts | 5° |
| 2026-04-21 10:26 | 51.31614 | 71.62713 | 12397 ft | 351 kts | 4° |
| 2026-04-21 10:26 | 51.34066 | 71.63108 | 13186 ft | 356 kts | 4° |
| 2026-04-21 10:26 | 51.36547 | 71.63507 | 13958 ft | 360 kts | 5° |
| 2026-04-21 10:27 | 51.39052 | 71.63911 | 14670 ft | 364 kts | 4° |
| 2026-04-21 10:27 | 51.41578 | 71.64317 | 15366 ft | 368 kts | 4° |
| 2026-04-21 10:27 | 51.44136 | 71.64730 | 16066 ft | 372 kts | 4° |
| 2026-04-21 10:27 | 51.45851 | 71.65003 | 16533 ft | 375 kts | 4° |
| 2026-04-21 10:28 | 51.48463 | 71.65418 | 17234 ft | 379 kts | 4° |
| 2026-04-21 10:28 | 51.51969 | 71.65976 | 18152 ft | 385 kts | 4° |
| 2026-04-21 10:28 | 51.53773 | 71.66264 | 18543 ft | 387 kts | 4° |
| 2026-04-21 10:28 | 51.56465 | 71.66696 | 19144 ft | 391 kts | 4° |
| 2026-04-21 10:29 | 51.60054 | 71.67279 | 19996 ft | 393 kts | 5° |
| 2026-04-21 10:29 | 51.61898 | 71.67580 | 20422 ft | 394 kts | 5° |
| 2026-04-21 10:29 | 51.64607 | 71.68021 | 20965 ft | 398 kts | 4° |
| 2026-04-21 10:29 | 51.67376 | 71.68467 | 21534 ft | 401 kts | 4° |
| 2026-04-21 10:30 | 51.70174 | 71.68916 | 22095 ft | 405 kts | 4° |
| 2026-04-21 10:30 | 51.72992 | 71.69369 | 22638 ft | 409 kts | 4° |
| 2026-04-21 10:30 | 51.75831 | 71.69828 | 23188 ft | 412 kts | 4° |
| 2026-04-21 10:30 | 51.78700 | 71.70295 | 23674 ft | 416 kts | 4° |
| 2026-04-21 10:31 | 51.81587 | 71.70768 | 24120 ft | 419 kts | 4° |
| 2026-04-21 10:31 | 51.84495 | 71.71242 | 24592 ft | 421 kts | 4° |
| 2026-04-21 10:31 | 51.87418 | 71.71716 | 25042 ft | 423 kts | 4° |
| 2026-04-21 10:31 | 51.90348 | 71.72194 | 25489 ft | 426 kts | 4° |
| 2026-04-21 10:32 | 51.93304 | 71.72678 | 25937 ft | 428 kts | 4° |
| 2026-04-21 10:32 | 51.96278 | 71.73164 | 26375 ft | 431 kts | 3° |
| 2026-04-21 10:32 | 51.99276 | 71.73652 | 26811 ft | 434 kts | 3° |
| 2026-04-21 10:32 | 52.02293 | 71.74143 | 27242 ft | 436 kts | 3° |
| 2026-04-21 10:33 | 52.05277 | 71.74632 | 27657 ft | 439 kts | 3° |
| 2026-04-21 10:33 | 52.08327 | 71.75154 | 28092 ft | 442 kts | 5° |
| 2026-04-21 10:33 | 52.11371 | 71.76059 | 28528 ft | 446 kts | 8° |
| 2026-04-21 10:33 | 52.14422 | 71.77045 | 28933 ft | 448 kts | 8° |
| 2026-04-21 10:34 | 52.17490 | 71.78040 | 29333 ft | 451 kts | 8° |
| 2026-04-21 10:34 | 52.20576 | 71.79036 | 29726 ft | 453 kts | 8° |
| 2026-04-21 10:34 | 52.23675 | 71.80032 | 30069 ft | 456 kts | 8° |
| 2026-04-21 10:34 | 52.26804 | 71.81039 | 30385 ft | 459 kts | 8° |
| 2026-04-21 10:35 | 52.29949 | 71.82056 | 30699 ft | 461 kts | 8° |
| 2026-04-21 10:35 | 52.33104 | 71.83081 | 31016 ft | 464 kts | 8° |
| 2026-04-21 10:35 | 52.36282 | 71.84111 | 31346 ft | 467 kts | 8° |
| 2026-04-21 10:35 | 52.39470 | 71.85148 | 31727 ft | 467 kts | 8° |
| 2026-04-21 10:36 | 52.42619 | 71.86178 | 31836 ft | 462 kts | 8° |
| 2026-04-21 10:36 | 52.45713 | 71.87197 | 31849 ft | 446 kts | 8° |
| 2026-04-21 10:36 | 52.48739 | 71.88192 | 31848 ft | 440 kts | 8° |
| 2026-04-21 10:37 | 52.54724 | 71.90147 | 31846 ft | 437 kts | 7° |
| 2026-04-21 10:37 | 52.60696 | 71.92095 | 31849 ft | 437 kts | 7° |
| 2026-04-21 10:38 | 52.66663 | 71.94033 | 31845 ft | 437 kts | 7° |
| 2026-04-21 10:38 | 52.72618 | 71.95821 | 31849 ft | 436 kts | 6° |
| 2026-04-21 10:39 | 52.78601 | 71.97536 | 31843 ft | 436 kts | 6° |
| 2026-04-21 10:39 | 52.84585 | 71.99294 | 31846 ft | 436 kts | 6° |
| 2026-04-21 10:40 | 52.90561 | 72.01085 | 31841 ft | 437 kts | 6° |
| 2026-04-21 10:40 | 52.96550 | 72.02892 | 31839 ft | 437 kts | 5° |
| 2026-04-21 10:41 | 53.02501 | 72.04681 | 31837 ft | 438 kts | 6° |
| 2026-04-21 10:41 | 53.08487 | 72.06502 | 31839 ft | 438 kts | 6° |
| 2026-04-21 10:42 | 53.14485 | 72.08332 | 31856 ft | 438 kts | 5° |
| 2026-04-21 10:42 | 53.20486 | 72.10156 | 31849 ft | 438 kts | 5° |
| 2026-04-21 10:43 | 53.26481 | 72.11976 | 31843 ft | 437 kts | 5° |
| 2026-04-21 10:43 | 53.32474 | 72.13798 | 31842 ft | 437 kts | 5° |
| 2026-04-21 10:44 | 53.38458 | 72.15637 | 31470 ft | 436 kts | 5° |
| 2026-04-21 10:44 | 53.41449 | 72.16559 | 30807 ft | 437 kts | 5° |
| 2026-04-21 10:44 | 53.44438 | 72.17479 | 30127 ft | 438 kts | 6° |
| 2026-04-21 10:44 | 53.47428 | 72.18404 | 29573 ft | 435 kts | 6° |
| 2026-04-21 10:45 | 53.50389 | 72.19326 | 29036 ft | 430 kts | 6° |
| 2026-04-21 10:45 | 53.53283 | 72.20229 | 28506 ft | 426 kts | 6° |
| 2026-04-21 10:45 | 53.56182 | 72.21136 | 27978 ft | 422 kts | 6° |
| 2026-04-21 10:45 | 53.59057 | 72.22029 | 27448 ft | 418 kts | 6° |
| 2026-04-21 10:46 | 53.61908 | 72.22908 | 26925 ft | 414 kts | 6° |
| 2026-04-21 10:46 | 53.64737 | 72.23783 | 26408 ft | 411 kts | 6° |
| 2026-04-21 10:46 | 53.67534 | 72.24664 | 25896 ft | 407 kts | 6° |
| 2026-04-21 10:46 | 53.70306 | 72.25558 | 25443 ft | 403 kts | 7° |
| 2026-04-21 10:47 | 53.73043 | 72.26456 | 24971 ft | 399 kts | 7° |
| 2026-04-21 10:47 | 53.75765 | 72.27352 | 24483 ft | 396 kts | 7° |
| 2026-04-21 10:47 | 53.78459 | 72.28238 | 24016 ft | 392 kts | 7° |
| 2026-04-21 10:47 | 53.81130 | 72.29113 | 23541 ft | 389 kts | 7° |
| 2026-04-21 10:48 | 53.83774 | 72.29975 | 23010 ft | 386 kts | 7° |
| 2026-04-21 10:48 | 53.86401 | 72.30829 | 22471 ft | 383 kts | 7° |
| 2026-04-21 10:48 | 53.88978 | 72.31666 | 21958 ft | 380 kts | 7° |
| 2026-04-21 10:48 | 53.91559 | 72.32507 | 21454 ft | 377 kts | 7° |
| 2026-04-21 10:49 | 53.94124 | 72.33349 | 20961 ft | 374 kts | 7° |
| 2026-04-21 10:49 | 53.96668 | 72.34184 | 20494 ft | 371 kts | 6° |
| 2026-04-21 10:49 | 53.99193 | 72.35014 | 20034 ft | 368 kts | 6° |
| 2026-04-21 10:49 | 54.01695 | 72.35836 | 19576 ft | 365 kts | 6° |
| 2026-04-21 10:50 | 54.04183 | 72.36654 | 19123 ft | 362 kts | 6° |
| 2026-04-21 10:50 | 54.06647 | 72.37466 | 18675 ft | 360 kts | 6° |
| 2026-04-21 10:50 | 54.09098 | 72.38277 | 18232 ft | 358 kts | 6° |
| 2026-04-21 10:50 | 54.11533 | 72.39084 | 17736 ft | 355 kts | 6° |
| 2026-04-21 10:51 | 54.13958 | 72.39898 | 17252 ft | 353 kts | 8° |
| 2026-04-21 10:51 | 54.16296 | 72.41234 | 16768 ft | 356 kts | 21° |
| 2026-04-21 10:51 | 54.18439 | 72.43331 | 16310 ft | 356 kts | 30° |
| 2026-04-21 10:51 | 54.20515 | 72.45615 | 15862 ft | 354 kts | 30° |
| 2026-04-21 10:52 | 54.22584 | 72.47886 | 15424 ft | 351 kts | 30° |
| 2026-04-21 10:52 | 54.24629 | 72.50127 | 15003 ft | 348 kts | 30° |
| 2026-04-21 10:52 | 54.26661 | 72.52355 | 14593 ft | 346 kts | 30° |
| 2026-04-21 10:52 | 54.28682 | 72.54579 | 14183 ft | 344 kts | 30° |
| 2026-04-21 10:53 | 54.30660 | 72.56757 | 13786 ft | 341 kts | 30° |
| 2026-04-21 10:53 | 54.32649 | 72.58949 | 13350 ft | 339 kts | 30° |
| 2026-04-21 10:53 | 54.34628 | 72.61131 | 12889 ft | 337 kts | 30° |
| 2026-04-21 10:53 | 54.36594 | 72.63301 | 12445 ft | 335 kts | 30° |
| 2026-04-21 10:54 | 54.38555 | 72.65464 | 11998 ft | 333 kts | 30° |
| 2026-04-21 10:54 | 54.40495 | 72.67607 | 11563 ft | 331 kts | 30° |
| 2026-04-21 10:54 | 54.42426 | 72.69750 | 11142 ft | 329 kts | 30° |
| 2026-04-21 10:54 | 54.44344 | 72.71883 | 10733 ft | 327 kts | 31° |
| 2026-04-21 10:55 | 54.46246 | 72.73997 | 10331 ft | 325 kts | 31° |
| 2026-04-21 10:55 | 54.46320 | 72.74080 | 10316 ft | 325 kts | 31° |
| 2026-04-21 10:55 | 54.48130 | 72.76088 | 9938 ft | 323 kts | 31° |
| 2026-04-21 10:55 | 54.49995 | 72.78162 | 9724 ft | 313 kts | 31° |
| 2026-04-21 10:56 | 54.51791 | 72.80167 | 9569 ft | 303 kts | 31° |
| 2026-04-21 10:56 | 54.53541 | 72.82125 | 9265 ft | 298 kts | 31° |
| 2026-04-21 10:56 | 54.55251 | 72.84038 | 8899 ft | 295 kts | 31° |
| 2026-04-21 10:56 | 54.56966 | 72.85958 | 8538 ft | 293 kts | 32° |
| 2026-04-21 10:57 | 54.58672 | 72.87874 | 8148 ft | 292 kts | 32° |
| 2026-04-21 10:57 | 54.60365 | 72.89777 | 7780 ft | 289 kts | 32° |
| 2026-04-21 10:57 | 54.62129 | 72.91398 | 7397 ft | 286 kts | 22° |
| 2026-04-21 10:57 | 54.63961 | 72.92741 | 7024 ft | 285 kts | 23° |
| 2026-04-21 10:58 | 54.65775 | 72.94083 | 6684 ft | 283 kts | 23° |
| 2026-04-21 10:58 | 54.67581 | 72.95429 | 6341 ft | 281 kts | 24° |
| 2026-04-21 10:58 | 54.69365 | 72.96765 | 5957 ft | 280 kts | 24° |
| 2026-04-21 10:58 | 54.71144 | 72.98096 | 5562 ft | 278 kts | 24° |
| 2026-04-21 10:59 | 54.72915 | 72.99421 | 5191 ft | 277 kts | 25° |
| 2026-04-21 10:59 | 54.74673 | 73.00737 | 4851 ft | 274 kts | 24° |
| 2026-04-21 10:59 | 54.76344 | 73.01989 | 4456 ft | 273 kts | 24° |
| 2026-04-21 10:59 | 54.78081 | 73.03297 | 4071 ft | 272 kts | 24° |
| 2026-04-21 11:00 | 54.79803 | 73.04596 | 3753 ft | 269 kts | 25° |
| 2026-04-21 11:00 | 54.81521 | 73.05883 | 3417 ft | 268 kts | 23° |
| 2026-04-21 11:00 | 54.83297 | 73.06666 | 3286 ft | 260 kts | 6° |
| 2026-04-21 11:00 | 54.85068 | 73.06520 | 3160 ft | 251 kts | 349° |
| 2026-04-21 11:01 | 54.86743 | 73.05863 | 3035 ft | 243 kts | 350° |
| 2026-04-21 11:01 | 54.88370 | 73.05233 | 2902 ft | 235 kts | 349° |
| 2026-04-21 11:01 | 54.89923 | 73.04635 | 2802 ft | 221 kts | 351° |
| 2026-04-21 11:02 | 54.92667 | 73.04978 | 2515 ft | 192 kts | 40° |
| 2026-04-21 11:02 | 54.93430 | 73.06770 | 2285 ft | 184 kts | 72° |
| 2026-04-21 11:02 | 54.93731 | 73.08903 | 2013 ft | 179 kts | 78° |
| 2026-04-21 11:02 | 54.94002 | 73.10908 | 1863 ft | 160 kts | 77° |
| 2026-04-21 11:03 | 54.94237 | 73.12641 | 1741 ft | 135 kts | 78° |
| 2026-04-21 11:03 | 54.94446 | 73.14184 | 1387 ft | 129 kts | 78° |
| 2026-04-21 11:03 | 54.94653 | 73.15689 | 1083 ft | 123 kts | 76° |
| 2026-04-21 11:03 | 54.94856 | 73.17063 | 929 ft | 112 kts | 75° |
| 2026-04-21 11:04 | 54.95009 | 73.18357 | 722 ft | 107 kts | 76° |
| 2026-04-21 11:04 | 54.95205 | 73.19750 | 892 ft | 120 kts | 75° |
| 2026-04-21 11:04 | 54.95373 | 73.21026 | 1255 ft | 100 kts | 79° |
| 2026-04-21 11:04 | 54.95548 | 73.22217 | 925 ft | 113 kts | 72° |
| 2026-04-21 11:05 | 54.95751 | 73.23661 | 984 ft | 133 kts | 78° |
| 2026-04-21 11:05 | 54.95935 | 73.25428 | 1101 ft | 162 kts | 79° |
| 2026-04-21 11:05 | 54.96215 | 73.27371 | 725 ft | 164 kts | 73° |
| 2026-04-21 11:05 | 54.96467 | 73.29191 | 370 ft | 146 kts | 75° |
| 2026-04-21 11:06 | 54.96686 | 73.30730 | 314 ft | 115 kts | 77° |
| 2026-04-21 11:06 | 54.96855 | 73.32027 | 310 ft | 126 kts | 77° |
| 2026-04-21 11:06 | 54.97101 | 73.33906 | 640 ft | 176 kts | 77° |
| 2026-04-21 11:06 | 54.97398 | 73.35980 | 1807 ft | 180 kts | 77° |
| 2026-04-21 11:07 | 54.97716 | 73.38219 | 2673 ft | 198 kts | 78° |
| 2026-04-21 11:07 | 54.98045 | 73.40581 | 3573 ft | 209 kts | 78° |
| 2026-04-21 11:07 | 54.98506 | 73.43024 | 3882 ft | 219 kts | 61° |
| 2026-04-21 11:07 | 54.99613 | 73.44876 | 3984 ft | 227 kts | 27° |
| 2026-04-21 11:08 | 55.01166 | 73.45398 | 4006 ft | 233 kts | 354° |
| 2026-04-21 11:08 | 55.02765 | 73.44788 | 4012 ft | 250 kts | 343° |
| 2026-04-21 11:08 | 55.04513 | 73.43854 | 4013 ft | 270 kts | 342° |
| 2026-04-21 11:08 | 55.06295 | 73.42762 | 4006 ft | 272 kts | 332° |
| 2026-04-21 11:09 | 55.07724 | 73.40649 | 4012 ft | 270 kts | 302° |
| 2026-04-21 11:09 | 55.08397 | 73.37673 | 4007 ft | 261 kts | 273° |
| 2026-04-21 11:09 | 55.08176 | 73.34600 | 4013 ft | 255 kts | 249° |
| 2026-04-21 11:09 | 55.07413 | 73.32008 | 4006 ft | 254 kts | 234° |
| 2026-04-21 11:10 | 55.06450 | 73.29539 | 4006 ft | 254 kts | 232° |
| 2026-04-21 11:10 | 55.05542 | 73.26888 | 4001 ft | 257 kts | 243° |
| 2026-04-21 11:10 | 55.04994 | 73.23948 | 4006 ft | 258 kts | 252° |
| 2026-04-21 11:10 | 55.04536 | 73.20927 | 3670 ft | 257 kts | 252° |
| 2026-04-21 11:11 | 55.04078 | 73.17870 | 3225 ft | 262 kts | 254° |
| 2026-04-21 11:11 | 55.03604 | 73.14792 | 2817 ft | 263 kts | 253° |
| 2026-04-21 11:11 | 55.03107 | 73.11726 | 2494 ft | 261 kts | 253° |
| 2026-04-21 11:11 | 55.02607 | 73.08699 | 2152 ft | 259 kts | 254° |
| 2026-04-21 11:12 | 55.02063 | 73.05710 | 2016 ft | 260 kts | 247° |
| 2026-04-21 11:12 | 55.01045 | 73.03188 | 2011 ft | 252 kts | 216° |
| 2026-04-21 11:12 | 54.99567 | 73.01842 | 2024 ft | 230 kts | 197° |
| 2026-04-21 11:12 | 54.98055 | 73.01177 | 2014 ft | 220 kts | 185° |
| 2026-04-21 11:13 | 54.96568 | 73.00757 | 2006 ft | 217 kts | 185° |
| 2026-04-21 11:13 | 54.95070 | 73.00803 | 2013 ft | 212 kts | 160° |
| 2026-04-21 11:13 | 54.93888 | 73.02120 | 2007 ft | 202 kts | 126° |
| 2026-04-21 11:13 | 54.93296 | 73.04284 | 2001 ft | 201 kts | 98° |
| 2026-04-21 11:14 | 54.93412 | 73.06705 | 2012 ft | 202 kts | 76° |
| 2026-04-21 11:14 | 54.93743 | 73.09068 | 2022 ft | 200 kts | 77° |
| 2026-04-21 11:14 | 54.94070 | 73.11430 | 2016 ft | 203 kts | 76° |
| 2026-04-21 11:14 | 54.94377 | 73.13674 | 1997 ft | 173 kts | 77° |
| 2026-04-21 11:15 | 54.94628 | 73.15528 | 1969 ft | 146 kts | 77° |
| 2026-04-21 11:15 | 54.94850 | 73.17174 | 1825 ft | 136 kts | 77° |
| 2026-04-21 11:15 | 54.95064 | 73.18757 | 1657 ft | 131 kts | 77° |
| 2026-04-21 11:15 | 54.95269 | 73.20277 | 1477 ft | 130 kts | 77° |
| 2026-04-21 11:16 | 54.95478 | 73.21822 | 1285 ft | 130 kts | 77° |
| 2026-04-21 11:16 | 54.95680 | 73.23350 | 1066 ft | 130 kts | 76° |
| 2026-04-21 11:16 | 54.95874 | 73.24872 | 834 ft | 128 kts | 76° |
| 2026-04-21 11:16 | 54.96091 | 73.26399 | 676 ft | 130 kts | 75° |
| 2026-04-21 11:17 | 54.96298 | 73.27925 | 500 ft | 132 kts | 76° |
| 2026-04-21 11:17 | 54.96507 | 73.29450 | 330 ft | 126 kts | 74° |
| 2026-04-21 11:17 | 54.96687 | 73.30753 | 313 ft | 86 kts | 78° |
| 2026-04-21 11:17 | 54.96771 | 73.31461 | 308 ft | 37 kts | 77° |
| 2026-04-21 11:18 | 54.96813 | 73.31758 | 307 ft | 21 kts | 76° |
| 2026-04-21 11:18 | 54.96842 | 73.31998 | 310 ft | 16 kts | 79° |
| 2026-04-21 11:18 | 54.96801 | 73.32077 | 307 ft | 8 kts | 171° |